Springfield Branson National Airport Springfield US
ICAO: KSGF
IATA: SGF
Category: Large
Scheduled Services: Yes

Elevation: 1268 ft
TransAlt. 18000 ft.

Airport Communications:
APP/DEP:124.95
ATIS:119.05
CLNC DEL:123.675
GND:121.9
ARNG OPS:134.95
COLUMBIA RDO:122.55
TWR:119.9
UNICOM:122.95

KSGF Zoom In..

If you have problems with the map follow the link
https://www.worldairports.se/pages/airport.php?
ICAO=KSGF

Runways:

(A) RW 02 length 7003 ft width 150 ft
ILS 109.90 / hdg 19

(B) RW 14 length 8000 ft width 150 ft
ILS 109.70 / hdg 139

(C) RW 20 length 7003 ft width 150 ft
---- / hdg 199

(D) RW 32 length 8000 ft width 150 ft
---- / hdg 319

Location; KSGF
Day. 25 / Time. 21.52 Zulu
* Altimeter: 30.03
* Temperature: 05° c. 41°f.
* Wind from: 000° Speed 00 kn.
Dewpoint: 01° c.
Visibility: 10 Statute Miles.
Clouds: Few 1000 ft.

KSGF 252152Z 00000KT 10SM FEW100 05/01 A3003 RMK AO2 SLP177 T00500006


Wind - Calm.

 
 
jpsmedia worldairports.se 2020   terms of use